Time;durP1;ratioP1;P1;durP2;ratioP2;P2;SDS_P1;SDS_P2;PMS_P1;PMS_P2;Temp;Humidity;BMP_temperature;BMP_pressure;BME280_temperature;BME280_humidity;BME280_pressure;Samples;Min_cycle;Max_cycle;Signal;HPM_P1;HPM_P2
2022/05/05 00:02:18;;;;;;;8.40;7.17;;;15.40;94.50;;;;;;4929849;29;20203;-64
2022/05/05 00:04:43;;;;;;;6.63;6.03;;;15.40;94.80;;;;;;4928366;29;20211;-65
2022/05/05 00:07:09;;;;;;;6.30;5.70;;;15.40;94.70;;;;;;4926391;29;20226;-64
2022/05/05 00:09:34;;;;;;;6.73;6.13;;;15.40;94.90;;;;;;4928185;29;20214;-64
2022/05/05 00:14:44;;;;;;;6.60;5.87;;;15.40;95.60;;;;;;4924366;29;20214;-64
2022/05/05 00:17:10;;;;;;;7.47;6.77;;;15.20;96.50;;;;;;4929528;29;20227;-64
2022/05/05 00:19:40;;;;;;;7.87;6.53;;;15.10;96.90;;;;;;4927866;29;20274;-65
2022/05/05 00:22:06;;;;;;;10.70;7.77;;;15.10;97.20;;;;;;4929493;29;20243;-64
2022/05/05 00:24:32;;;;;;;8.63;6.63;;;15.00;97.70;;;;;;4927986;29;20206;-63
2022/05/05 00:26:58;;;;;;;7.80;7.10;;;15.00;97.80;;;;;;4929863;29;20297;-72
2022/05/05 00:29:24;;;;;;;8.50;7.27;;;15.10;97.90;;;;;;4926331;29;20293;-79
2022/05/05 00:31:50;;;;;;;11.17;8.33;;;15.20;97.90;;;;;;4930340;29;20238;-73
2022/05/05 00:34:16;;;;;;;10.10;9.10;;;15.20;98.10;;;;;;4927761;29;20262;-73
2022/05/05 00:36:42;;;;;;;9.90;8.97;;;15.20;98.10;;;;;;4929679;29;20250;-77
2022/05/05 00:39:08;;;;;;;11.10;9.73;;;15.10;98.50;;;;;;4927329;29;20195;-73
2022/05/05 00:41:45;;;;;;;10.87;9.77;;;15.00;99.90;;;;;;4929610;29;20634;-75
2022/05/05 00:44:12;;;;;;;9.40;8.50;;;14.90;99.90;;;;;;4927292;29;20202;-75
2022/05/05 00:46:38;;;;;;;10.07;9.07;;;14.90;99.90;;;;;;4929618;29;20664;-73
2022/05/05 00:49:05;;;;;;;14.63;10.10;;;14.90;99.90;;;;;;4927315;29;20206;-72
2022/05/05 00:51:31;;;;;;;8.10;7.40;;;14.80;99.90;;;;;;4930280;29;20202;-74
2022/05/05 00:53:56;;;;;;;10.13;9.30;;;14.80;99.90;;;;;;4927674;29;20199;-71
2022/05/05 00:56:23;;;;;;;8.87;7.93;;;14.70;99.90;;;;;;4929207;29;20646;-70
2022/05/05 00:58:50;;;;;;;10.83;9.73;;;14.60;99.90;;;;;;4927322;29;20214;-70
2022/05/05 01:01:18;;;;;;;7.43;6.83;;;14.50;99.90;;;;;;4929359;29;20242;-69
2022/05/05 01:03:45;;;;;;;7.00;6.47;;;14.40;99.90;;;;;;4927263;29;20677;-69
2022/05/05 01:06:12;;;;;;;8.87;6.87;;;14.30;99.90;;;;;;4929298;29;20198;-70
2022/05/05 01:08:37;;;;;;;7.80;7.10;;;14.20;99.90;;;;;;4929071;29;20205;-71
2022/05/05 01:11:03;;;;;;;6.40;5.90;;;14.30;99.90;;;;;;4927467;29;20289;-70
2022/05/05 01:13:36;;;;;;;6.67;6.03;;;14.30;99.90;;;;;;4928928;29;20199;-70
2022/05/05 01:16:04;;;;;;;7.73;6.23;;;14.30;99.90;;;;;;4926573;29;20215;-69
2022/05/05 01:18:29;;;;;;;6.50;5.90;;;14.30;99.90;;;;;;4929215;29;20215;-71
2022/05/05 01:20:55;;;;;;;6.33;5.67;;;14.20;99.90;;;;;;4926879;29;20237;-71
2022/05/05 01:23:21;;;;;;;5.37;4.87;;;14.10;99.90;;;;;;4928614;29;20195;-72
2022/05/05 01:28:34;;;;;;;7.83;5.30;;;14.00;99.90;;;;;;4928751;29;20242;-71
2022/05/05 01:31:01;;;;;;;11.97;5.60;;;13.80;99.90;;;;;;4926548;29;21052;-71
2022/05/05 01:33:28;;;;;;;7.17;5.90;;;13.70;99.90;;;;;;4928728;29;20252;-70
2022/05/05 01:35:57;;;;;;;7.97;5.07;;;13.70;99.90;;;;;;4927042;29;20326;-70
2022/05/05 01:38:36;;;;;;;9.30;5.67;;;13.70;99.90;;;;;;4928163;29;20223;-70
2022/05/05 01:41:03;;;;;;;8.67;6.10;;;13.70;99.90;;;;;;4926257;29;20198;-70
2022/05/05 01:43:29;;;;;;;6.80;5.57;;;13.60;99.90;;;;;;4928478;29;20205;-71
2022/05/05 01:45:54;;;;;;;6.37;5.77;;;13.50;99.90;;;;;;4926732;29;20203;-71
2022/05/05 01:48:20;;;;;;;8.87;6.50;;;13.50;99.90;;;;;;4927989;29;20733;-71
2022/05/05 01:50:48;;;;;;;5.13;4.73;;;13.50;99.90;;;;;;4926761;29;20202;-70
2022/05/05 01:53:14;;;;;;;6.03;5.47;;;13.50;99.90;;;;;;4924200;29;20710;-70
2022/05/05 01:55:39;;;;;;;8.87;5.23;;;13.50;99.90;;;;;;4926702;29;20251;-71
2022/05/05 01:58:05;;;;;;;6.83;5.47;;;13.50;99.90;;;;;;4927536;29;20214;-71
2022/05/05 02:00:31;;;;;;;9.70;5.90;;;13.50;99.90;;;;;;4926231;29;20210;-70
2022/05/05 02:02:56;;;;;;;6.60;5.73;;;13.50;99.90;;;;;;4915812;29;20191;-72
2022/05/05 02:05:22;;;;;;;6.33;5.70;;;13.40;99.90;;;;;;4926405;29;20214;-69
2022/05/05 02:07:48;;;;;;;8.17;6.13;;;13.40;99.90;;;;;;4927279;29;20212;-71
2022/05/05 02:10:16;;;;;;;10.63;6.60;;;13.40;99.90;;;;;;4925281;29;20514;-67
2022/05/05 02:12:43;;;;;;;8.90;5.97;;;13.40;99.90;;;;;;4926342;29;20207;-69
2022/05/05 02:15:10;;;;;;;9.37;6.27;;;13.30;99.90;;;;;;4925964;29;20305;-75
2022/05/05 02:17:37;;;;;;;7.97;6.30;;;13.30;99.90;;;;;;4927195;29;20242;-69
2022/05/05 02:20:05;;;;;;;9.83;6.33;;;13.20;99.90;;;;;;4925812;29;20650;-68
2022/05/05 02:22:31;;;;;;;9.60;6.40;;;13.30;99.90;;;;;;4927483;29;20227;-69
2022/05/05 02:24:56;;;;;;;9.40;6.07;;;13.20;99.90;;;;;;4925707;29;20304;-69
2022/05/05 02:27:22;;;;;;;7.57;6.20;;;13.10;99.90;;;;;;4927263;29;20399;-69
2022/05/05 02:29:48;;;;;;;9.80;6.73;;;13.20;99.90;;;;;;4925180;29;20325;-69
2022/05/05 02:32:14;;;;;;;8.07;6.33;;;13.20;99.90;;;;;;4926592;29;20680;-69
2022/05/05 02:34:40;;;;;;;9.57;6.63;;;13.10;99.90;;;;;;4928460;29;20237;-70
2022/05/05 02:39:50;;;;;;;8.03;7.23;;;13.20;99.90;;;;;;4928235;29;20198;-71
2022/05/05 02:42:16;;;;;;;8.97;7.43;;;13.10;99.90;;;;;;4925701;29;20193;-71
2022/05/05 02:44:42;;;;;;;8.67;7.80;;;13.20;99.90;;;;;;4928025;29;20556;-70
2022/05/05 02:47:08;;;;;;;8.40;7.63;;;13.20;99.90;;;;;;4925642;29;20601;-70
2022/05/05 02:49:33;;;;;;;10.47;7.10;;;13.30;99.90;;;;;;4925907;29;20225;-70
2022/05/05 02:51:59;;;;;;;10.10;7.20;;;13.30;99.90;;;;;;4927646;29;20195;-70
2022/05/05 02:57:08;;;;;;;9.50;6.97;;;13.30;99.90;;;;;;4926456;29;20315;-71
2022/05/05 02:59:34;;;;;;;9.30;7.20;;;13.30;99.90;;;;;;4920097;29;20236;-71
2022/05/05 03:01:59;;;;;;;8.00;6.87;;;13.20;99.90;;;;;;4927245;29;20320;-70
2022/05/05 03:04:25;;;;;;;7.57;6.77;;;13.20;99.90;;;;;;4925822;29;20210;-69
2022/05/05 03:06:50;;;;;;;7.17;6.43;;;13.20;99.90;;;;;;4927235;29;20247;-69
2022/05/05 03:09:16;;;;;;;10.03;7.07;;;13.20;99.90;;;;;;4925404;29;20571;-69
2022/05/05 03:11:41;;;;;;;9.53;7.57;;;13.20;99.90;;;;;;4927159;29;20546;-71
2022/05/05 03:14:07;;;;;;;8.40;7.40;;;13.10;99.90;;;;;;4925227;29;20203;-70
2022/05/05 03:16:32;;;;;;;10.53;8.00;;;13.10;99.90;;;;;;4926919;29;20206;-70
2022/05/05 03:18:58;;;;;;;9.30;7.50;;;13.10;99.90;;;;;;4925435;28;20269;-75
2022/05/05 03:21:23;;;;;;;9.13;8.13;;;13.00;99.90;;;;;;4928650;29;20198;-68
2022/05/05 03:23:48;;;;;;;8.60;7.43;;;13.00;99.90;;;;;;4929201;29;20213;-68
2022/05/05 03:26:14;;;;;;;9.37;6.57;;;13.00;99.90;;;;;;4931226;29;20269;-68
2022/05/05 03:28:39;;;;;;;7.17;6.57;;;13.00;99.90;;;;;;4928868;29;20289;-70
2022/05/05 03:31:06;;;;;;;9.57;7.43;;;13.10;99.90;;;;;;4930702;29;20193;-70
2022/05/05 03:33:32;;;;;;;7.67;6.87;;;13.10;99.90;;;;;;4928887;29;20285;-70
2022/05/05 03:35:58;;;;;;;8.10;6.87;;;13.10;99.90;;;;;;4930619;29;20603;-69
2022/05/05 03:38:24;;;;;;;11.40;7.73;;;13.10;99.90;;;;;;4928639;29;20258;-69
2022/05/05 03:40:51;;;;;;;9.27;7.53;;;13.10;99.90;;;;;;4930603;29;20621;-69
2022/05/05 03:43:17;;;;;;;12.07;10.87;;;13.10;99.90;;;;;;4928597;29;20290;-69
2022/05/05 03:45:42;;;;;;;12.00;7.83;;;13.10;99.90;;;;;;4930725;29;20785;-70
2022/05/05 03:48:08;;;;;;;8.60;7.80;;;12.90;99.90;;;;;;4928507;29;20206;-69
2022/05/05 03:50:34;;;;;;;9.47;8.03;;;12.90;99.90;;;;;;4930816;29;20194;-69
2022/05/05 03:52:59;;;;;;;10.67;8.83;;;12.80;99.90;;;;;;4929176;29;20198;-70
2022/05/05 03:55:25;;;;;;;9.47;7.73;;;12.80;99.90;;;;;;4930775;29;20189;-70
2022/05/05 03:57:50;;;;;;;9.50;8.03;;;12.80;99.90;;;;;;4930186;29;20226;-70
2022/05/05 04:00:18;;;;;;;14.40;8.97;;;12.80;99.90;;;;;;4928551;29;20564;-70
2022/05/05 04:02:43;;;;;;;11.00;8.27;;;12.70;99.90;;;;;;4930121;29;20202;-70
2022/05/05 04:05:09;;;;;;;11.27;8.73;;;12.70;99.90;;;;;;4928389;29;20205;-70
2022/05/05 04:07:35;;;;;;;10.63;7.90;;;12.80;99.90;;;;;;4930410;29;20254;-70
2022/05/05 04:10:00;;;;;;;10.47;9.03;;;12.80;99.90;;;;;;4928535;29;20211;-70
2022/05/05 04:12:26;;;;;;;8.70;7.90;;;12.70;99.90;;;;;;4929520;29;20203;-70
2022/05/05 04:14:51;;;;;;;7.73;7.00;;;12.80;99.90;;;;;;4925163;29;20725;-69
2022/05/05 04:17:17;;;;;;;10.27;8.97;;;12.70;99.90;;;;;;4919404;29;20259;-70
2022/05/05 04:19:43;;;;;;;10.67;9.00;;;12.60;99.90;;;;;;4924030;29;20210;-69
2022/05/05 04:22:08;;;;;;;12.07;8.10;;;12.60;99.90;;;;;;4930017;29;20230;-70
2022/05/05 04:24:34;;;;;;;11.50;8.57;;;12.60;99.90;;;;;;4928655;29;20214;-69
2022/05/05 04:27:01;;;;;;;10.17;9.07;;;12.50;99.90;;;;;;4928905;29;20238;-70
2022/05/05 04:29:26;;;;;;;12.70;9.13;;;12.60;99.90;;;;;;4928132;29;20632;-70
2022/05/05 04:31:52;;;;;;;9.33;8.43;;;12.60;99.90;;;;;;4929157;29;20207;-69
2022/05/05 04:34:18;;;;;;;12.93;9.37;;;12.40;99.90;;;;;;4927669;29;20326;-70
2022/05/05 04:36:43;;;;;;;9.83;8.93;;;12.40;99.90;;;;;;4930375;29;20230;-69
2022/05/05 04:39:09;;;;;;;11.83;9.30;;;12.40;99.90;;;;;;4928048;29;20305;-69
2022/05/05 04:41:34;;;;;;;10.03;9.03;;;12.30;99.90;;;;;;4929919;29;20195;-70
2022/05/05 04:44:00;;;;;;;12.60;9.13;;;12.30;99.90;;;;;;4927910;29;20202;-69
2022/05/05 04:46:26;;;;;;;12.63;8.90;;;12.20;99.90;;;;;;4929654;29;20296;-69
2022/05/05 04:48:53;;;;;;;14.97;10.07;;;12.30;99.90;;;;;;4927804;29;20218;-68
2022/05/05 04:51:18;;;;;;;9.40;8.50;;;12.30;99.90;;;;;;4929694;29;20189;-68
2022/05/05 04:53:44;;;;;;;9.90;8.37;;;12.30;99.90;;;;;;4928017;29;20286;-68
2022/05/05 04:56:10;;;;;;;13.47;9.93;;;12.30;99.90;;;;;;4929623;29;20195;-68
2022/05/05 04:58:36;;;;;;;9.13;7.90;;;12.40;99.90;;;;;;4927277;29;20290;-68
2022/05/05 05:01:02;;;;;;;11.17;9.10;;;12.40;99.90;;;;;;4929511;29;20781;-68
2022/05/05 05:03:35;;;;;;;14.17;9.27;;;12.40;99.90;;;;;;4927336;29;20673;-68
2022/05/05 05:06:02;;;;;;;9.37;8.47;;;12.50;99.90;;;;;;4929708;29;20698;-68
2022/05/05 05:08:27;;;;;;;9.33;8.43;;;12.50;99.90;;;;;;4927152;29;20221;-68
2022/05/05 05:10:53;;;;;;;11.63;8.83;;;12.50;99.90;;;;;;4929163;29;20193;-68
2022/05/05 05:13:18;;;;;;;9.37;8.13;;;12.50;99.90;;;;;;4927334;29;20250;-68
2022/05/05 05:15:45;;;;;;;13.80;9.53;;;12.30;99.90;;;;;;4929416;29;20193;-68
2022/05/05 05:18:10;;;;;;;15.20;10.37;;;12.40;99.90;;;;;;4923820;29;20225;-68
2022/05/05 05:20:36;;;;;;;13.67;9.83;;;12.40;99.90;;;;;;4929502;29;20186;-69
2022/05/05 05:23:01;;;;;;;11.73;9.60;;;12.40;99.90;;;;;;4927061;29;20205;-69
2022/05/05 05:25:27;;;;;;;15.60;9.20;;;12.40;99.90;;;;;;4929002;29;20614;-69
2022/05/05 05:27:52;;;;;;;12.80;9.27;;;12.40;99.90;;;;;;4928975;29;20210;-68
2022/05/05 05:30:18;;;;;;;12.30;10.17;;;12.40;99.90;;;;;;4926792;29;20265;-69
2022/05/05 05:32:43;;;;;;;12.83;9.70;;;12.50;99.90;;;;;;4922674;29;20410;-69
2022/05/05 05:35:08;;;;;;;11.57;9.63;;;12.50;99.90;;;;;;4926673;29;20227;-70
2022/05/05 05:37:34;;;;;;;11.67;8.30;;;12.50;99.90;;;;;;4928545;29;20541;-69
2022/05/05 05:40:00;;;;;;;11.50;8.93;;;12.50;99.90;;;;;;4926713;29;20208;-70
2022/05/05 05:42:25;;;;;;;9.70;8.03;;;12.60;99.90;;;;;;4927882;29;20194;-70
2022/05/05 05:44:50;;;;;;;14.07;9.50;;;12.60;99.90;;;;;;4926380;29;20213;-69
2022/05/05 05:47:16;;;;;;;13.00;9.60;;;12.60;99.90;;;;;;4928125;29;20658;-69
2022/05/05 05:49:41;;;;;;;11.77;8.33;;;12.70;99.90;;;;;;4926862;29;20210;-69
2022/05/05 05:52:07;;;;;;;14.30;8.43;;;12.60;99.90;;;;;;4928343;29;20254;-71
2022/05/05 05:54:32;;;;;;;9.57;7.70;;;12.60;99.90;;;;;;4920681;29;20579;-69
2022/05/05 05:56:58;;;;;;;24.97;10.27;;;12.70;99.90;;;;;;4928476;29;20559;-75
2022/05/05 05:59:23;;;;;;;10.27;8.77;;;12.70;99.90;;;;;;4926957;29;20202;-68
2022/05/05 06:04:33;;;;;;;14.07;8.90;;;12.70;99.90;;;;;;4921275;29;20365;-68
2022/05/05 06:06:59;;;;;;;12.23;8.27;;;12.80;99.90;;;;;;4928364;29;20300;-68
2022/05/05 06:09:25;;;;;;;10.77;7.57;;;13.00;99.90;;;;;;4926773;29;20334;-69
2022/05/05 06:11:50;;;;;;;11.13;8.80;;;13.10;99.90;;;;;;4928285;29;20191;-68
2022/05/05 06:14:16;;;;;;;13.20;8.60;;;13.10;99.90;;;;;;4926459;29;20345;-69
2022/05/05 06:16:41;;;;;;;11.23;9.57;;;13.20;99.90;;;;;;4927450;29;20233;-69
2022/05/05 06:19:07;;;;;;;14.10;9.23;;;13.10;99.90;;;;;;4926124;29;20276;-69
2022/05/05 06:21:32;;;;;;;9.20;8.30;;;12.90;99.90;;;;;;4928346;29;20199;-71
2022/05/05 06:23:57;;;;;;;12.43;10.13;;;12.90;99.90;;;;;;4926538;29;20282;-70
2022/05/05 06:26:23;;;;;;;13.23;9.90;;;13.00;99.90;;;;;;4927824;29;20226;-69
2022/05/05 06:28:50;;;;;;;15.67;8.80;;;13.00;99.90;;;;;;4925977;29;20267;-69
2022/05/05 06:31:16;;;;;;;13.53;9.70;;;13.00;99.90;;;;;;4928335;29;20186;-69
2022/05/05 06:33:43;;;;;;;11.03;8.23;;;12.90;99.90;;;;;;4925679;29;20214;-70
2022/05/05 06:36:08;;;;;;;9.60;8.33;;;13.10;99.90;;;;;;4926048;29;20239;-68
2022/05/05 06:38:34;;;;;;;9.57;8.63;;;13.30;99.90;;;;;;4913003;29;20280;-69
2022/05/05 06:41:00;;;;;;;10.63;8.37;;;13.30;99.90;;;;;;4927686;29;20194;-69
2022/05/05 06:43:26;;;;;;;14.20;9.63;;;13.40;99.90;;;;;;4925544;29;20221;-69
2022/05/05 06:45:52;;;;;;;12.77;8.50;;;13.60;99.90;;;;;;4927665;29;20927;-68
2022/05/05 06:48:17;;;;;;;10.00;8.53;;;13.70;99.90;;;;;;4925554;29;20223;-69
2022/05/05 06:50:43;;;;;;;14.87;9.40;;;13.80;99.90;;;;;;4926328;29;20724;-70
2022/05/05 06:53:08;;;;;;;12.27;8.23;;;13.80;99.90;;;;;;4925269;29;20583;-69
2022/05/05 06:55:34;;;;;;;10.77;7.53;;;13.60;99.90;;;;;;4926896;29;20202;-69
2022/05/05 06:58:00;;;;;;;12.93;8.60;;;13.60;99.90;;;;;;4925572;29;20222;-70
2022/05/05 07:01:51;;;;;;;10.40;9.03;;;13.60;99.90;;;;;;4927281;29;20198;-67
2022/05/05 07:03:11;;;;;;;8.57;7.67;;;13.50;99.90;;;;;;4924948;29;20721;-69
2022/05/05 07:05:36;;;;;;;9.73;8.43;;;13.50;99.90;;;;;;4927327;29;20261;-71
2022/05/05 07:08:02;;;;;;;15.37;10.60;;;13.60;99.90;;;;;;4925464;29;20261;-70
2022/05/05 07:13:12;;;;;;;10.97;8.90;;;13.40;99.90;;;;;;4925461;29;20214;-67
2022/05/05 07:15:38;;;;;;;14.63;9.73;;;13.40;99.90;;;;;;4926847;29;20256;-69
2022/05/05 07:18:04;;;;;;;9.47;8.47;;;13.60;99.90;;;;;;4924678;29;20310;-69
2022/05/05 07:20:30;;;;;;;13.77;8.90;;;13.80;99.90;;;;;;4913808;29;20202;-68
2022/05/05 07:22:56;;;;;;;8.30;7.37;;;13.80;99.90;;;;;;4925552;29;20229;-69
2022/05/05 07:25:22;;;;;;;12.70;8.63;;;13.90;99.90;;;;;;4927030;29;20198;-69
2022/05/05 07:27:48;;;;;;;13.77;9.30;;;14.00;99.90;;;;;;4924990;29;20268;-69
2022/05/05 07:30:14;;;;;;;12.90;8.30;;;14.00;99.90;;;;;;4927046;29;20202;-69
2022/05/05 07:32:40;;;;;;;10.13;8.13;;;14.30;99.90;;;;;;4924678;29;20206;-71
2022/05/05 07:35:06;;;;;;;13.70;8.40;;;14.60;99.90;;;;;;4926002;29;20256;-69
2022/05/05 07:37:32;;;;;;;11.57;8.20;;;14.90;99.90;;;;;;4925331;29;20222;-70
2022/05/05 07:39:58;;;;;;;9.17;7.53;;;15.00;99.90;;;;;;4927250;29;20234;-69
2022/05/05 07:42:23;;;;;;;10.57;8.60;;;15.00;99.90;;;;;;4925390;29;20704;-69
2022/05/05 07:44:49;;;;;;;11.63;8.37;;;15.00;99.90;;;;;;4927325;29;20183;-76
2022/05/05 07:47:14;;;;;;;11.40;7.67;;;15.20;99.90;;;;;;4926150;29;20265;-80
2022/05/05 07:49:40;;;;;;;8.53;7.27;;;15.30;99.90;;;;;;4927373;29;20259;-78
2022/05/05 07:52:06;;;;;;;8.43;7.63;;;15.10;99.90;;;;;;4924792;29;20626;-78
2022/05/05 07:54:34;;;;;;;8.67;6.87;;;15.00;99.90;;;;;;4926202;29;20733;-79
2022/05/05 07:57:00;;;;;;;10.70;7.23;;;15.00;99.90;;;;;;4925303;29;20227;-77
2022/05/05 07:59:26;;;;;;;12.50;7.80;;;15.10;99.90;;;;;;4926526;29;20198;-79
2022/05/05 08:01:51;;;;;;;9.00;7.13;;;15.30;99.90;;;;;;4925612;29;20215;-79
2022/05/05 08:04:17;;;;;;;11.47;6.53;;;15.20;99.90;;;;;;4921360;29;20203;-77
2022/05/05 08:06:42;;;;;;;12.60;7.17;;;15.40;99.90;;;;;;4928319;29;20919;-77
2022/05/05 08:09:08;;;;;;;9.67;6.53;;;15.30;99.90;;;;;;4928310;29;20207;-77
2022/05/05 08:11:35;;;;;;;7.47;6.77;;;15.60;99.90;;;;;;4930489;29;20194;-76
2022/05/05 08:14:00;;;;;;;10.13;7.10;;;15.50;99.90;;;;;;4928696;29;20218;-77
2022/05/05 08:16:26;;;;;;;10.07;8.07;;;15.30;99.90;;;;;;4930679;29;20540;-75
2022/05/05 08:18:52;;;;;;;9.07;7.23;;;15.20;99.90;;;;;;4928280;29;20711;-76
2022/05/05 08:21:17;;;;;;;10.83;7.47;;;15.20;99.90;;;;;;4929067;29;20274;-78
2022/05/05 08:23:43;;;;;;;10.57;7.60;;;15.10;99.90;;;;;;4924863;29;20191;-77
2022/05/05 08:28:52;;;;;;;7.17;6.57;;;15.20;99.90;;;;;;4926460;29;20306;-78
2022/05/05 08:31:18;;;;;;;7.50;6.53;;;15.40;99.90;;;;;;4930663;29;20190;-79
2022/05/05 08:33:44;;;;;;;11.67;6.83;;;15.20;99.90;;;;;;4929126;29;20541;-77
2022/05/05 08:36:10;;;;;;;11.50;6.67;;;15.20;99.90;;;;;;4930330;29;20694;-75
2022/05/05 08:38:36;;;;;;;9.10;6.70;;;15.10;99.90;;;;;;4928163;29;20223;-74
2022/05/05 08:41:03;;;;;;;12.80;6.80;;;15.10;99.90;;;;;;4930558;29;20661;-75
2022/05/05 08:43:28;;;;;;;6.97;6.17;;;15.30;99.90;;;;;;4929919;29;20191;-76
2022/05/05 08:45:57;;;;;;;7.80;6.73;;;15.20;99.90;;;;;;4929660;29;20693;-77
2022/05/05 08:48:23;;;;;;;8.33;7.23;;;15.20;99.90;;;;;;4930866;29;20195;-76
2022/05/05 08:50:56;;;;;;;8.27;7.40;;;15.30;99.90;;;;;;4929668;29;20305;-77
2022/05/05 08:53:25;;;;;;;8.03;6.60;;;15.30;99.90;;;;;;4924349;29;20199;-77
2022/05/05 08:55:51;;;;;;;10.73;7.27;;;15.40;99.90;;;;;;4934784;29;20266;-73
2022/05/05 08:58:17;;;;;;;8.77;6.87;;;15.50;99.90;;;;;;4938341;29;20616;-72
2022/05/05 09:00:43;;;;;;;10.03;6.37;;;15.50;99.90;;;;;;4929949;29;20199;-73
2022/05/05 09:03:10;;;;;;;9.30;6.30;;;15.60;99.90;;;;;;4929664;29;20681;-74
2022/05/05 09:05:45;;;;;;;8.97;5.97;;;15.60;99.90;;;;;;4929225;29;20235;-74
2022/05/05 09:08:25;;;;;;;8.03;5.97;;;15.70;99.90;;;;;;4931510;29;20744;-76
2022/05/05 09:10:55;;;;;;;8.07;5.37;;;15.50;99.90;;;;;;4927132;29;20814;-79
2022/05/05 09:13:22;;;;;;;7.80;6.07;;;15.80;99.90;;;;;;4926645;29;20206;-77
2022/05/05 09:15:48;;;;;;;6.70;5.77;;;15.80;99.90;;;;;;4928898;29;20693;-78
2022/05/05 09:18:15;;;;;;;11.73;6.67;;;16.10;99.90;;;;;;4929762;29;20214;-78
2022/05/05 09:20:42;;;;;;;7.87;6.43;;;16.10;99.90;;;;;;4926825;29;20943;-68
2022/05/05 09:23:08;;;;;;;6.33;5.63;;;16.30;99.90;;;;;;4929029;29;20222;-68
2022/05/05 09:25:47;;;;;;;7.83;5.83;;;16.20;99.90;;;;;;4926965;29;20230;-68
2022/05/05 09:28:20;;;;;;;8.97;5.63;;;16.30;99.90;;;;;;4929172;29;20198;-70
2022/05/05 09:30:50;;;;;;;10.00;6.20;;;16.50;99.90;;;;;;4926859;29;20218;-69
2022/05/05 09:33:34;;;;;;;6.63;5.67;;;16.30;99.90;;;;;;4928684;29;20653;-68
2022/05/05 09:36:02;;;;;;;6.27;4.17;;;16.50;99.90;;;;;;4909930;29;20848;-70
2022/05/05 09:38:47;;;;;;;6.47;5.07;;;16.50;99.90;;;;;;4928079;29;20278;-69
2022/05/05 09:41:12;;;;;;;8.63;5.97;;;16.40;99.90;;;;;;4928482;29;20278;-69
2022/05/05 09:43:37;;;;;;;9.67;5.23;;;16.30;99.90;;;;;;4926759;29;20282;-71
2022/05/05 09:46:23;;;;;;;7.97;5.07;;;16.30;99.50;;;;;;4928796;29;20531;-69
2022/05/05 09:49:11;;;;;;;8.30;5.17;;;16.40;98.80;;;;;;4922994;29;20245;-69
2022/05/05 09:51:45;;;;;;;4.80;4.40;;;16.70;97.40;;;;;;4928909;29;20248;-69
2022/05/05 09:59:47;;;;;;;4.90;4.27;;;17.20;97.30;;;;;;4923085;29;20214;-69
2022/05/05 10:04:00;;;;;;;6.33;5.10;;;17.00;96.50;;;;;;4928197;29;20684;-69
2022/05/05 10:05:15;;;;;;;6.67;4.97;;;17.70;97.60;;;;;;4926087;29;20328;-69
2022/05/05 10:07:44;;;;;;;8.27;5.93;;;17.80;96.70;;;;;;4923762;29;20212;-69
2022/05/05 10:10:15;;;;;;;6.37;4.70;;;17.90;96.50;;;;;;4926887;29;20551;-68
2022/05/05 10:12:41;;;;;;;10.07;5.17;;;18.00;97.10;;;;;;4920350;29;20199;-69
2022/05/05 10:15:07;;;;;;;8.33;5.10;;;18.10;97.20;;;;;;4926842;29;20210;-69
2022/05/05 10:17:35;;;;;;;9.17;5.13;;;17.40;96.60;;;;;;4927401;29;20475;-69
2022/05/05 10:20:02;;;;;;;9.07;5.07;;;17.00;96.40;;;;;;4926566;29;20266;-69
2022/05/05 10:22:37;;;;;;;12.83;6.00;;;17.20;96.80;;;;;;4927980;29;20325;-69
2022/05/05 10:25:11;;;;;;;8.07;5.73;;;17.60;97.10;;;;;;4924752;29;20224;-69
2022/05/05 10:27:45;;;;;;;8.70;4.83;;;18.00;96.40;;;;;;4918785;29;20251;-69
2022/05/05 10:30:16;;;;;;;7.33;5.47;;;18.20;96.50;;;;;;4925990;29;20212;-69
2022/05/05 10:32:42;;;;;;;7.40;4.93;;;18.50;96.00;;;;;;4927642;29;20634;-69
2022/05/05 10:35:08;;;;;;;8.17;4.90;;;18.70;94.70;;;;;;4920336;29;20639;-71
2022/05/05 10:37:37;;;;;;;6.63;5.53;;;18.70;95.10;;;;;;4928039;29;20209;-70
2022/05/05 10:40:07;;;;;;;7.23;5.27;;;18.90;94.60;;;;;;4926046;29;20209;-70
2022/05/05 10:42:45;;;;;;;6.57;4.80;;;18.80;93.00;;;;;;4927927;29;20965;-70
2022/05/05 10:45:14;;;;;;;8.10;5.37;;;18.60;92.00;;;;;;4921504;29;20229;-70
2022/05/05 10:47:52;;;;;;;7.33;4.90;;;18.70;91.80;;;;;;4927392;29;20203;-70
2022/05/05 10:50:33;;;;;;;8.70;5.37;;;19.10;92.50;;;;;;4925510;29;20683;-71
2022/05/05 10:52:59;;;;;;;7.93;5.87;;;19.40;92.40;;;;;;4927597;29;20277;-70
2022/05/05 10:55:46;;;;;;;55.10;50.97;;;19.60;91.20;;;;;;4921770;29;20207;-71
2022/05/05 10:58:12;;;;;;;7.00;4.97;;;19.90;90.90;;;;;;4914941;29;20215;-71
2022/05/05 11:00:40;;;;;;;8.40;6.13;;;20.30;89.70;;;;;;4925597;29;20724;-70
2022/05/05 11:03:09;;;;;;;9.47;5.50;;;20.20;89.80;;;;;;4908509;29;20202;-70
2022/05/05 11:05:36;;;;;;;6.13;5.53;;;20.10;90.10;;;;;;4924970;29;20212;-70
2022/05/05 11:08:08;;;;;;;8.60;5.73;;;20.10;87.90;;;;;;4927002;29;20205;-70
2022/05/05 11:10:45;;;;;;;11.23;6.77;;;19.80;89.70;;;;;;4925233;29;20221;-66
2022/05/05 11:13:33;;;;;;;30.20;27.17;;;19.50;89.20;;;;;;4927105;29;20200;-66
2022/05/05 11:22:08;;;;;;;9.80;6.03;;;19.50;88.70;;;;;;4927405;29;20586;-69
2022/05/05 11:24:33;;;;;;;14.87;8.77;;;18.70;90.10;;;;;;4924917;29;20216;-70
2022/05/05 11:27:00;;;;;;;12.13;8.03;;;19.20;89.50;;;;;;4913368;29;20218;-69
2022/05/05 11:29:30;;;;;;;13.10;7.87;;;19.50;89.80;;;;;;4924991;29;20724;-69
2022/05/05 11:32:00;;;;;;;18.33;9.87;;;18.60;90.20;;;;;;4926832;29;20571;-69
2022/05/05 11:34:37;;;;;;;12.97;6.87;;;18.50;91.30;;;;;;4913064;29;20272;-70
2022/05/05 11:37:05;;;;;;;18.70;8.30;;;18.70;91.10;;;;;;4926920;29;20206;-70
2022/05/05 11:39:32;;;;;;;17.47;8.00;;;19.20;90.80;;;;;;4924767;29;20217;-70
2022/05/05 11:42:03;;;;;;;20.03;8.30;;;18.90;90.40;;;;;;4928696;29;20194;-71
2022/05/05 11:44:28;;;;;;;14.93;9.30;;;19.30;90.90;;;;;;4918650;29;20284;-71
2022/05/05 11:47:07;;;;;;;6.57;5.00;;;20.20;90.10;;;;;;4930872;29;20658;-70
2022/05/05 11:49:33;;;;;;;8.43;4.90;;;20.60;88.40;;;;;;4926990;29;20217;-70
2022/05/05 11:51:59;;;;;;;8.70;5.97;;;20.60;87.30;;;;;;4930433;29;20256;-70
2022/05/05 11:54:27;;;;;;;7.57;5.10;;;19.90;87.00;;;;;;4928442;29;20710;-70
2022/05/05 11:56:53;;;;;;;5.17;4.67;;;19.30;88.00;;;;;;4930967;29;20194;-71
2022/05/05 12:02:13;;;;;;;7.30;4.57;;;19.00;87.70;;;;;;4921775;29;20190;-70
2022/05/05 12:04:44;;;;;;;7.47;4.07;;;20.00;86.50;;;;;;4923825;29;20203;-70
2022/05/05 12:07:19;;;;;;;8.90;3.90;;;21.10;85.10;;;;;;4930343;29;20527;-67
2022/05/05 12:09:45;;;;;;;4.67;4.13;;;21.20;81.90;;;;;;4920993;29;20210;-66
2022/05/05 12:12:16;;;;;;;6.50;4.20;;;21.30;81.40;;;;;;4929973;29;20229;-67
2022/05/05 12:14:47;;;;;;;16.30;8.13;;;20.90;81.30;;;;;;4928177;29;20213;-66
2022/05/05 12:17:16;;;;;;;7.17;4.73;;;21.10;82.00;;;;;;4921090;29;20207;-64
2022/05/05 12:19:51;;;;;;;8.03;4.03;;;21.10;79.80;;;;;;4926369;29;20224;-66
2022/05/05 12:22:22;;;;;;;7.00;4.47;;;21.10;79.20;;;;;;4926467;29;20281;-65
2022/05/05 12:24:48;;;;;;;6.37;4.20;;;20.70;80.30;;;;;;4928099;29;20214;-66
2022/05/05 12:27:13;;;;;;;4.53;4.00;;;20.50;79.80;;;;;;4929853;29;20229;-67
2022/05/05 12:29:41;;;;;;;5.40;4.70;;;20.20;79.90;;;;;;4928063;29;20213;-66
2022/05/05 12:32:12;;;;;;;5.67;4.20;;;20.00;79.90;;;;;;4929526;29;20225;-68
2022/05/05 12:34:39;;;;;;;7.67;4.13;;;19.40;80.70;;;;;;4927584;29;20286;-65
2022/05/05 12:37:09;;;;;;;8.27;5.27;;;20.00;82.00;;;;;;4929607;29;20250;-66
2022/05/05 12:39:51;;;;;;;5.23;4.27;;;20.80;79.50;;;;;;4927552;29;20349;-65
2022/05/05 12:42:17;;;;;;;7.13;5.13;;;21.50;77.50;;;;;;4921969;29;20193;-66
2022/05/05 12:44:49;;;;;;;7.23;5.83;;;21.30;76.70;;;;;;4927455;29;20221;-67
2022/05/05 12:47:20;;;;;;;8.20;5.10;;;21.30;78.00;;;;;;4929692;29;20198;-67
2022/05/05 12:49:45;;;;;;;7.47;5.10;;;21.30;75.70;;;;;;4920161;29;20206;-69
2022/05/05 12:59:36;;;;;;;5.17;4.60;;;21.50;75.40;;;;;;4928997;29;20608;-68
2022/05/05 13:00:51;;;;;;;6.57;5.63;;;20.80;74.80;;;;;;4884437;29;20242;-68
2022/05/05 13:03:18;;;;;;;10.17;7.27;;;21.10;74.30;;;;;;4910552;29;20218;-72
2022/05/05 13:05:45;;;;;;;33.27;28.67;;;21.40;75.80;;;;;;4927574;29;20343;-70
2022/05/05 13:08:11;;;;;;;7.20;4.33;;;23.00;74.60;;;;;;4929309;29;20230;-70
2022/05/05 13:10:36;;;;;;;7.35;5.38;;;23.00;71.50;;;;;;4927049;29;20226;-68
2022/05/05 13:13:02;;;;;;;7.57;5.77;;;22.20;71.20;;;;;;4929608;29;20199;-66
2022/05/05 13:15:28;;;;;;;8.80;6.10;;;21.40;72.00;;;;;;4927402;29;20291;-71
2022/05/05 13:17:53;;;;;;;6.27;5.67;;;21.00;72.40;;;;;;4928729;29;20308;-70
2022/05/05 13:20:19;;;;;;;8.63;4.90;;;21.00;72.90;;;;;;4927193;29;20787;-68
2022/05/05 13:22:44;;;;;;;10.83;4.60;;;20.90;73.30;;;;;;4927042;29;20197;-71
2022/05/05 13:25:10;;;;;;;5.70;4.17;;;20.90;71.70;;;;;;4926927;29;20203;-66